sensor_id;sensor_type;location;lat;lon;timestamp;P1;durP1;ratioP1;P2;durP2;ratioP2
36547;SDS011;22551;52.206;4.856;2022-10-16T00:03:20;2.72;;;1.35;;
36547;SDS011;22551;52.206;4.856;2022-10-16T00:08:22;6.15;;;1.38;;
36547;SDS011;22551;52.206;4.856;2022-10-16T00:13:26;7.20;;;1.48;;
36547;SDS011;22551;52.206;4.856;2022-10-16T00:18:28;1.67;;;0.88;;
36547;SDS011;22551;52.206;4.856;2022-10-16T00:23:31;2.55;;;0.80;;
36547;SDS011;22551;52.206;4.856;2022-10-16T00:28:36;6.60;;;1.42;;
36547;SDS011;22551;52.206;4.856;2022-10-16T00:33:47;4.50;;;1.00;;
36547;SDS011;22551;52.206;4.856;2022-10-16T00:38:52;2.22;;;1.13;;
36547;SDS011;22551;52.206;4.856;2022-10-16T00:49:45;5.50;;;1.02;;
36547;SDS011;22551;52.206;4.856;2022-10-16T00:54:48;2.83;;;1.08;;
36547;SDS011;22551;52.206;4.856;2022-10-16T00:59:54;6.30;;;1.20;;
36547;SDS011;22551;52.206;4.856;2022-10-16T01:04:57;2.03;;;1.03;;
36547;SDS011;22551;52.206;4.856;2022-10-16T01:10:07;0.82;;;0.60;;
36547;SDS011;22551;52.206;4.856;2022-10-16T01:15:21;3.65;;;0.88;;
36547;SDS011;22551;52.206;4.856;2022-10-16T01:20:30;1.27;;;0.45;;
36547;SDS011;22551;52.206;4.856;2022-10-16T01:25:52;1.02;;;0.60;;
36547;SDS011;22551;52.206;4.856;2022-10-16T01:31:40;2.50;;;0.70;;
36547;SDS011;22551;52.206;4.856;2022-10-16T01:36:56;2.47;;;0.80;;
36547;SDS011;22551;52.206;4.856;2022-10-16T01:42:06;1.75;;;0.80;;
36547;SDS011;22551;52.206;4.856;2022-10-16T01:47:24;3.83;;;1.15;;
36547;SDS011;22551;52.206;4.856;2022-10-16T01:52:28;2.28;;;0.93;;
36547;SDS011;22551;52.206;4.856;2022-10-16T01:57:32;3.22;;;1.13;;
36547;SDS011;22551;52.206;4.856;2022-10-16T02:02:43;1.08;;;0.95;;
36547;SDS011;22551;52.206;4.856;2022-10-16T02:07:51;1.27;;;0.90;;
36547;SDS011;22551;52.206;4.856;2022-10-16T02:12:55;1.75;;;0.90;;
36547;SDS011;22551;52.206;4.856;2022-10-16T02:18:03;3.17;;;1.08;;
36547;SDS011;22551;52.206;4.856;2022-10-16T02:23:08;2.97;;;0.90;;
36547;SDS011;22551;52.206;4.856;2022-10-16T02:28:25;3.35;;;1.30;;
36547;SDS011;22551;52.206;4.856;2022-10-16T02:33:45;1.33;;;1.08;;
36547;SDS011;22551;52.206;4.856;2022-10-16T02:38:48;6.05;;;2.38;;
36547;SDS011;22551;52.206;4.856;2022-10-16T02:43:52;2.63;;;1.55;;
36547;SDS011;22551;52.206;4.856;2022-10-16T02:48:59;3.33;;;1.77;;
36547;SDS011;22551;52.206;4.856;2022-10-16T02:54:03;2.70;;;1.73;;
36547;SDS011;22551;52.206;4.856;2022-10-16T02:59:08;2.50;;;1.65;;
36547;SDS011;22551;52.206;4.856;2022-10-16T03:04:12;1.98;;;1.50;;
36547;SDS011;22551;52.206;4.856;2022-10-16T03:09:14;3.13;;;1.48;;
36547;SDS011;22551;52.206;4.856;2022-10-16T03:14:16;5.47;;;2.05;;
36547;SDS011;22551;52.206;4.856;2022-10-16T03:19:19;4.32;;;1.63;;
36547;SDS011;22551;52.206;4.856;2022-10-16T03:24:22;2.47;;;1.67;;
36547;SDS011;22551;52.206;4.856;2022-10-16T03:29:24;6.20;;;2.03;;
36547;SDS011;22551;52.206;4.856;2022-10-16T03:34:29;2.25;;;1.80;;
36547;SDS011;22551;52.206;4.856;2022-10-16T03:39:31;10.75;;;2.22;;
36547;SDS011;22551;52.206;4.856;2022-10-16T03:44:33;2.80;;;1.60;;
36547;SDS011;22551;52.206;4.856;2022-10-16T03:49:36;3.28;;;1.83;;
36547;SDS011;22551;52.206;4.856;2022-10-16T03:54:38;3.45;;;1.58;;
36547;SDS011;22551;52.206;4.856;2022-10-16T03:59:40;3.63;;;1.73;;
36547;SDS011;22551;52.206;4.856;2022-10-16T04:04:44;4.40;;;1.50;;
36547;SDS011;22551;52.206;4.856;2022-10-16T04:09:46;5.32;;;1.83;;
36547;SDS011;22551;52.206;4.856;2022-10-16T04:14:49;2.13;;;1.33;;
36547;SDS011;22551;52.206;4.856;2022-10-16T04:19:52;3.30;;;1.38;;
36547;SDS011;22551;52.206;4.856;2022-10-16T04:24:54;2.53;;;1.52;;
36547;SDS011;22551;52.206;4.856;2022-10-16T04:29:58;2.83;;;1.20;;
36547;SDS011;22551;52.206;4.856;2022-10-16T04:35:03;3.20;;;1.27;;
36547;SDS011;22551;52.206;4.856;2022-10-16T04:40:12;4.68;;;1.30;;
36547;SDS011;22551;52.206;4.856;2022-10-16T04:45:17;3.15;;;1.10;;
36547;SDS011;22551;52.206;4.856;2022-10-16T04:50:24;1.67;;;1.00;;
36547;SDS011;22551;52.206;4.856;2022-10-16T04:55:27;2.97;;;0.80;;
36547;SDS011;22551;52.206;4.856;2022-10-16T05:00:37;3.15;;;1.17;;
36547;SDS011;22551;52.206;4.856;2022-10-16T05:05:44;3.75;;;1.02;;
36547;SDS011;22551;52.206;4.856;2022-10-16T05:10:53;4.85;;;1.38;;
36547;SDS011;22551;52.206;4.856;2022-10-16T05:15:57;5.18;;;1.10;;
36547;SDS011;22551;52.206;4.856;2022-10-16T05:21:02;5.15;;;1.58;;
36547;SDS011;22551;52.206;4.856;2022-10-16T05:31:08;1.63;;;1.00;;
36547;SDS011;22551;52.206;4.856;2022-10-16T05:36:12;8.77;;;1.40;;
36547;SDS011;22551;52.206;4.856;2022-10-16T05:41:14;4.20;;;1.10;;
36547;SDS011;22551;52.206;4.856;2022-10-16T05:46:22;5.82;;;1.20;;
36547;SDS011;22551;52.206;4.856;2022-10-16T05:51:27;5.13;;;1.38;;
36547;SDS011;22551;52.206;4.856;2022-10-16T05:56:30;4.40;;;1.30;;
36547;SDS011;22551;52.206;4.856;2022-10-16T06:01:32;5.82;;;1.40;;
36547;SDS011;22551;52.206;4.856;2022-10-16T06:06:36;2.42;;;1.25;;
36547;SDS011;22551;52.206;4.856;2022-10-16T06:11:38;2.40;;;1.30;;
36547;SDS011;22551;52.206;4.856;2022-10-16T06:16:42;8.38;;;1.38;;
36547;SDS011;22551;52.206;4.856;2022-10-16T06:21:45;4.25;;;1.45;;
36547;SDS011;22551;52.206;4.856;2022-10-16T06:26:48;3.78;;;1.30;;
36547;SDS011;22551;52.206;4.856;2022-10-16T06:31:50;2.35;;;1.60;;
36547;SDS011;22551;52.206;4.856;2022-10-16T06:36:54;1.67;;;1.35;;
36547;SDS011;22551;52.206;4.856;2022-10-16T06:41:56;4.10;;;1.80;;
36547;SDS011;22551;52.206;4.856;2022-10-16T06:46:58;6.68;;;1.55;;
36547;SDS011;22551;52.206;4.856;2022-10-16T06:52:02;2.95;;;1.70;;
36547;SDS011;22551;52.206;4.856;2022-10-16T06:57:06;3.13;;;1.33;;
36547;SDS011;22551;52.206;4.856;2022-10-16T07:02:08;8.70;;;2.10;;
36547;SDS011;22551;52.206;4.856;2022-10-16T07:07:12;3.55;;;1.17;;
36547;SDS011;22551;52.206;4.856;2022-10-16T07:12:14;2.53;;;1.27;;
36547;SDS011;22551;52.206;4.856;2022-10-16T07:17:17;1.98;;;1.20;;
36547;SDS011;22551;52.206;4.856;2022-10-16T07:22:20;3.38;;;0.80;;
36547;SDS011;22551;52.206;4.856;2022-10-16T07:27:23;0.93;;;0.55;;
36547;SDS011;22551;52.206;4.856;2022-10-16T07:32:26;5.35;;;1.58;;
36547;SDS011;22551;52.206;4.856;2022-10-16T07:37:29;3.92;;;0.90;;
36547;SDS011;22551;52.206;4.856;2022-10-16T07:42:32;1.73;;;0.90;;
36547;SDS011;22551;52.206;4.856;2022-10-16T07:47:34;2.05;;;0.65;;
36547;SDS011;22551;52.206;4.856;2022-10-16T07:52:38;2.05;;;1.00;;
36547;SDS011;22551;52.206;4.856;2022-10-16T07:57:40;5.67;;;1.17;;
36547;SDS011;22551;52.206;4.856;2022-10-16T08:02:42;8.73;;;1.70;;
36547;SDS011;22551;52.206;4.856;2022-10-16T08:07:49;2.97;;;1.02;;
36547;SDS011;22551;52.206;4.856;2022-10-16T08:12:51;4.85;;;1.10;;
36547;SDS011;22551;52.206;4.856;2022-10-16T08:17:54;5.78;;;1.42;;
36547;SDS011;22551;52.206;4.856;2022-10-16T08:23:00;6.32;;;1.33;;
36547;SDS011;22551;52.206;4.856;2022-10-16T08:28:03;2.40;;;1.23;;
36547;SDS011;22551;52.206;4.856;2022-10-16T08:33:05;4.47;;;1.25;;
36547;SDS011;22551;52.206;4.856;2022-10-16T08:38:09;4.90;;;1.23;;
36547;SDS011;22551;52.206;4.856;2022-10-16T08:43:16;5.07;;;1.00;;
36547;SDS011;22551;52.206;4.856;2022-10-16T08:48:38;5.73;;;1.27;;
36547;SDS011;22551;52.206;4.856;2022-10-16T08:53:51;3.40;;;0.95;;
36547;SDS011;22551;52.206;4.856;2022-10-16T08:58:57;6.82;;;1.10;;
36547;SDS011;22551;52.206;4.856;2022-10-16T09:04:04;5.93;;;1.15;;
36547;SDS011;22551;52.206;4.856;2022-10-16T09:09:56;4.78;;;1.75;;
36547;SDS011;22551;52.206;4.856;2022-10-16T09:15:17;5.18;;;1.33;;
36547;SDS011;22551;52.206;4.856;2022-10-16T09:20:32;11.48;;;1.38;;
36547;SDS011;22551;52.206;4.856;2022-10-16T09:25:46;6.55;;;1.45;;
36547;SDS011;22551;52.206;4.856;2022-10-16T09:30:50;8.77;;;1.35;;
36547;SDS011;22551;52.206;4.856;2022-10-16T09:35:53;3.55;;;1.45;;
36547;SDS011;22551;52.206;4.856;2022-10-16T09:41:00;10.32;;;1.00;;
36547;SDS011;22551;52.206;4.856;2022-10-16T09:46:21;5.93;;;1.45;;
36547;SDS011;22551;52.206;4.856;2022-10-16T09:51:28;11.80;;;2.08;;
36547;SDS011;22551;52.206;4.856;2022-10-16T09:56:35;16.73;;;1.25;;
36547;SDS011;22551;52.206;4.856;2022-10-16T10:01:39;2.10;;;1.13;;
36547;SDS011;22551;52.206;4.856;2022-10-16T10:06:44;5.85;;;1.05;;
36547;SDS011;22551;52.206;4.856;2022-10-16T10:22:29;7.10;;;1.80;;
36547;SDS011;22551;52.206;4.856;2022-10-16T10:27:37;8.27;;;1.20;;
36547;SDS011;22551;52.206;4.856;2022-10-16T10:32:55;7.55;;;1.00;;
36547;SDS011;22551;52.206;4.856;2022-10-16T10:38:18;12.70;;;1.35;;
36547;SDS011;22551;52.206;4.856;2022-10-16T10:43:37;5.78;;;1.20;;
36547;SDS011;22551;52.206;4.856;2022-10-16T10:48:59;11.70;;;1.77;;
36547;SDS011;22551;52.206;4.856;2022-10-16T10:54:14;8.95;;;1.40;;
36547;SDS011;22551;52.206;4.856;2022-10-16T10:59:39;7.45;;;1.85;;
36547;SDS011;22551;52.206;4.856;2022-10-16T11:05:13;12.80;;;1.20;;
36547;SDS011;22551;52.206;4.856;2022-10-16T11:10:33;12.18;;;1.58;;
36547;SDS011;22551;52.206;4.856;2022-10-16T11:15:45;5.00;;;1.35;;
36547;SDS011;22551;52.206;4.856;2022-10-16T11:20:51;3.30;;;1.23;;
36547;SDS011;22551;52.206;4.856;2022-10-16T11:25:59;4.40;;;0.95;;
36547;SDS011;22551;52.206;4.856;2022-10-16T11:31:10;8.00;;;1.00;;
36547;SDS011;22551;52.206;4.856;2022-10-16T11:36:19;5.55;;;0.60;;
36547;SDS011;22551;52.206;4.856;2022-10-16T11:41:27;14.35;;;1.65;;
36547;SDS011;22551;52.206;4.856;2022-10-16T11:46:36;6.40;;;0.88;;
36547;SDS011;22551;52.206;4.856;2022-10-16T11:51:48;4.10;;;0.77;;
36547;SDS011;22551;52.206;4.856;2022-10-16T11:56:59;12.85;;;1.48;;
36547;SDS011;22551;52.206;4.856;2022-10-16T12:02:13;3.30;;;0.90;;
36547;SDS011;22551;52.206;4.856;2022-10-16T12:07:52;7.38;;;0.80;;
36547;SDS011;22551;52.206;4.856;2022-10-16T12:18:32;5.85;;;0.98;;
36547;SDS011;22551;52.206;4.856;2022-10-16T12:23:36;11.30;;;1.45;;
36547;SDS011;22551;52.206;4.856;2022-10-16T12:28:40;7.35;;;0.77;;
36547;SDS011;22551;52.206;4.856;2022-10-16T12:33:51;9.63;;;0.82;;
36547;SDS011;22551;52.206;4.856;2022-10-16T12:38:59;2.40;;;0.45;;
36547;SDS011;22551;52.206;4.856;2022-10-16T12:44:02;8.57;;;1.55;;
36547;SDS011;22551;52.206;4.856;2022-10-16T12:49:20;4.97;;;0.75;;
36547;SDS011;22551;52.206;4.856;2022-10-16T12:54:31;4.30;;;0.68;;
36547;SDS011;22551;52.206;4.856;2022-10-16T12:59:39;8.43;;;1.17;;
36547;SDS011;22551;52.206;4.856;2022-10-16T13:10:21;4.82;;;0.90;;
36547;SDS011;22551;52.206;4.856;2022-10-16T13:15:35;17.02;;;2.33;;
36547;SDS011;22551;52.206;4.856;2022-10-16T13:20:59;3.05;;;1.15;;
36547;SDS011;22551;52.206;4.856;2022-10-16T13:26:17;8.93;;;1.17;;
36547;SDS011;22551;52.206;4.856;2022-10-16T13:31:30;6.32;;;0.77;;
36547;SDS011;22551;52.206;4.856;2022-10-16T13:36:42;7.35;;;0.80;;
36547;SDS011;22551;52.206;4.856;2022-10-16T13:41:46;3.13;;;0.93;;
36547;SDS011;22551;52.206;4.856;2022-10-16T13:46:59;6.63;;;0.95;;
36547;SDS011;22551;52.206;4.856;2022-10-16T13:52:04;2.93;;;0.67;;
36547;SDS011;22551;52.206;4.856;2022-10-16T13:57:06;8.87;;;0.87;;
36547;SDS011;22551;52.206;4.856;2022-10-16T14:02:15;5.97;;;0.82;;
36547;SDS011;22551;52.206;4.856;2022-10-16T14:07:25;5.20;;;1.33;;
36547;SDS011;22551;52.206;4.856;2022-10-16T14:12:31;10.10;;;0.60;;
36547;SDS011;22551;52.206;4.856;2022-10-16T14:17:34;7.25;;;0.77;;
36547;SDS011;22551;52.206;4.856;2022-10-16T14:22:39;5.60;;;1.10;;
36547;SDS011;22551;52.206;4.856;2022-10-16T14:27:55;6.25;;;1.23;;
36547;SDS011;22551;52.206;4.856;2022-10-16T14:38:05;7.22;;;2.28;;
36547;SDS011;22551;52.206;4.856;2022-10-16T14:43:20;12.85;;;1.70;;
36547;SDS011;22551;52.206;4.856;2022-10-16T14:48:24;9.57;;;1.38;;
36547;SDS011;22551;52.206;4.856;2022-10-16T14:53:28;11.32;;;2.03;;
36547;SDS011;22551;52.206;4.856;2022-10-16T14:58:31;6.67;;;0.80;;
36547;SDS011;22551;52.206;4.856;2022-10-16T15:03:33;8.05;;;1.15;;
36547;SDS011;22551;52.206;4.856;2022-10-16T15:08:36;3.20;;;0.85;;
36547;SDS011;22551;52.206;4.856;2022-10-16T15:13:39;8.53;;;1.43;;
36547;SDS011;22551;52.206;4.856;2022-10-16T15:18:41;4.88;;;1.50;;
36547;SDS011;22551;52.206;4.856;2022-10-16T15:23:45;7.57;;;1.30;;
36547;SDS011;22551;52.206;4.856;2022-10-16T15:28:47;7.17;;;1.00;;
36547;SDS011;22551;52.206;4.856;2022-10-16T15:33:49;7.65;;;1.25;;
36547;SDS011;22551;52.206;4.856;2022-10-16T15:38:56;8.52;;;1.02;;
36547;SDS011;22551;52.206;4.856;2022-10-16T15:43:58;7.57;;;0.80;;
36547;SDS011;22551;52.206;4.856;2022-10-16T15:49:00;5.93;;;0.85;;
36547;SDS011;22551;52.206;4.856;2022-10-16T15:54:04;5.80;;;0.95;;
36547;SDS011;22551;52.206;4.856;2022-10-16T15:59:06;5.67;;;0.90;;
36547;SDS011;22551;52.206;4.856;2022-10-16T16:04:08;9.48;;;1.10;;
36547;SDS011;22551;52.206;4.856;2022-10-16T16:09:13;8.52;;;1.38;;
36547;SDS011;22551;52.206;4.856;2022-10-16T16:14:15;7.43;;;1.80;;
36547;SDS011;22551;52.206;4.856;2022-10-16T16:19:18;5.75;;;1.83;;
36547;SDS011;22551;52.206;4.856;2022-10-16T16:24:22;10.07;;;2.00;;
36547;SDS011;22551;52.206;4.856;2022-10-16T16:29:25;7.18;;;2.97;;
36547;SDS011;22551;52.206;4.856;2022-10-16T16:34:28;7.43;;;2.47;;
36547;SDS011;22551;52.206;4.856;2022-10-16T16:39:32;9.32;;;3.13;;
36547;SDS011;22551;52.206;4.856;2022-10-16T16:44:34;5.87;;;2.37;;
36547;SDS011;22551;52.206;4.856;2022-10-16T16:49:37;8.15;;;2.80;;
36547;SDS011;22551;52.206;4.856;2022-10-16T16:54:43;11.82;;;2.20;;
36547;SDS011;22551;52.206;4.856;2022-10-16T16:59:51;7.35;;;2.25;;
36547;SDS011;22551;52.206;4.856;2022-10-16T17:04:53;8.85;;;3.22;;
36547;SDS011;22551;52.206;4.856;2022-10-16T17:09:58;10.07;;;3.65;;
36547;SDS011;22551;52.206;4.856;2022-10-16T17:15:00;14.20;;;5.88;;
36547;SDS011;22551;52.206;4.856;2022-10-16T17:20:03;16.95;;;5.82;;
36547;SDS011;22551;52.206;4.856;2022-10-16T17:25:07;7.43;;;3.67;;
36547;SDS011;22551;52.206;4.856;2022-10-16T17:30:10;10.75;;;2.90;;
36547;SDS011;22551;52.206;4.856;2022-10-16T17:35:12;11.93;;;3.50;;
36547;SDS011;22551;52.206;4.856;2022-10-16T17:40:17;11.17;;;2.93;;
36547;SDS011;22551;52.206;4.856;2022-10-16T17:45:20;15.50;;;3.43;;
36547;SDS011;22551;52.206;4.856;2022-10-16T17:50:22;8.35;;;3.70;;
36547;SDS011;22551;52.206;4.856;2022-10-16T17:55:25;13.77;;;4.50;;
36547;SDS011;22551;52.206;4.856;2022-10-16T18:00:28;11.93;;;3.72;;
36547;SDS011;22551;52.206;4.856;2022-10-16T18:05:31;11.48;;;4.55;;
36547;SDS011;22551;52.206;4.856;2022-10-16T18:10:34;9.68;;;4.20;;
36547;SDS011;22551;52.206;4.856;2022-10-16T18:15:36;12.50;;;4.03;;
36547;SDS011;22551;52.206;4.856;2022-10-16T18:20:38;20.85;;;6.30;;
36547;SDS011;22551;52.206;4.856;2022-10-16T18:30:54;9.63;;;3.85;;
36547;SDS011;22551;52.206;4.856;2022-10-16T18:35:59;11.82;;;3.60;;
36547;SDS011;22551;52.206;4.856;2022-10-16T18:41:03;16.13;;;3.13;;
36547;SDS011;22551;52.206;4.856;2022-10-16T18:46:07;9.80;;;3.30;;
36547;SDS011;22551;52.206;4.856;2022-10-16T18:51:12;14.88;;;3.42;;
36547;SDS011;22551;52.206;4.856;2022-10-16T18:56:19;12.10;;;2.90;;
36547;SDS011;22551;52.206;4.856;2022-10-16T19:01:23;10.77;;;3.60;;
36547;SDS011;22551;52.206;4.856;2022-10-16T19:06:28;10.35;;;3.05;;
36547;SDS011;22551;52.206;4.856;2022-10-16T19:11:34;11.38;;;3.83;;
36547;SDS011;22551;52.206;4.856;2022-10-16T19:16:37;9.98;;;4.47;;
36547;SDS011;22551;52.206;4.856;2022-10-16T19:26:49;11.77;;;3.35;;
36547;SDS011;22551;52.206;4.856;2022-10-16T19:31:51;8.02;;;3.38;;
36547;SDS011;22551;52.206;4.856;2022-10-16T19:36:53;10.95;;;3.50;;
36547;SDS011;22551;52.206;4.856;2022-10-16T19:41:57;8.80;;;2.45;;
36547;SDS011;22551;52.206;4.856;2022-10-16T19:46:59;9.88;;;3.15;;
36547;SDS011;22551;52.206;4.856;2022-10-16T19:52:02;10.43;;;3.08;;
36547;SDS011;22551;52.206;4.856;2022-10-16T19:57:06;15.57;;;3.10;;
36547;SDS011;22551;52.206;4.856;2022-10-16T20:02:09;10.95;;;3.30;;
36547;SDS011;22551;52.206;4.856;2022-10-16T20:07:11;11.05;;;3.70;;
36547;SDS011;22551;52.206;4.856;2022-10-16T20:12:17;12.55;;;4.57;;
36547;SDS011;22551;52.206;4.856;2022-10-16T20:17:20;9.18;;;2.95;;
36547;SDS011;22551;52.206;4.856;2022-10-16T20:22:22;15.88;;;3.50;;
36547;SDS011;22551;52.206;4.856;2022-10-16T20:27:26;15.23;;;3.35;;
36547;SDS011;22551;52.206;4.856;2022-10-16T20:32:28;11.55;;;3.25;;
36547;SDS011;22551;52.206;4.856;2022-10-16T20:37:31;12.75;;;3.88;;
36547;SDS011;22551;52.206;4.856;2022-10-16T20:42:34;6.32;;;2.78;;
36547;SDS011;22551;52.206;4.856;2022-10-16T20:47:36;9.55;;;4.05;;
36547;SDS011;22551;52.206;4.856;2022-10-16T20:52:39;15.45;;;3.63;;
36547;SDS011;22551;52.206;4.856;2022-10-16T20:57:42;12.85;;;4.00;;
36547;SDS011;22551;52.206;4.856;2022-10-16T21:02:44;8.30;;;3.55;;
36547;SDS011;22551;52.206;4.856;2022-10-16T21:07:50;4.22;;;2.78;;
36547;SDS011;22551;52.206;4.856;2022-10-16T21:12:54;9.32;;;3.33;;
36547;SDS011;22551;52.206;4.856;2022-10-16T21:17:56;14.07;;;4.38;;
36547;SDS011;22551;52.206;4.856;2022-10-16T21:23:00;12.82;;;2.83;;
36547;SDS011;22551;52.206;4.856;2022-10-16T21:28:05;12.43;;;3.83;;
36547;SDS011;22551;52.206;4.856;2022-10-16T21:33:09;7.30;;;3.30;;
36547;SDS011;22551;52.206;4.856;2022-10-16T21:38:11;10.55;;;3.92;;
36547;SDS011;22551;52.206;4.856;2022-10-16T21:43:14;9.30;;;4.25;;
36547;SDS011;22551;52.206;4.856;2022-10-16T21:48:21;8.60;;;4.35;;
36547;SDS011;22551;52.206;4.856;2022-10-16T21:53:23;6.93;;;3.38;;
36547;SDS011;22551;52.206;4.856;2022-10-16T21:58:26;7.25;;;3.33;;
36547;SDS011;22551;52.206;4.856;2022-10-16T22:03:32;4.40;;;3.10;;
36547;SDS011;22551;52.206;4.856;2022-10-16T22:08:35;8.55;;;3.92;;
36547;SDS011;22551;52.206;4.856;2022-10-16T22:13:39;4.25;;;2.70;;
36547;SDS011;22551;52.206;4.856;2022-10-16T22:18:42;5.65;;;2.83;;
36547;SDS011;22551;52.206;4.856;2022-10-16T22:23:45;5.47;;;2.75;;
36547;SDS011;22551;52.206;4.856;2022-10-16T22:28:49;6.97;;;2.90;;
36547;SDS011;22551;52.206;4.856;2022-10-16T22:33:55;7.07;;;3.43;;
36547;SDS011;22551;52.206;4.856;2022-10-16T22:38:59;5.97;;;2.42;;
36547;SDS011;22551;52.206;4.856;2022-10-16T22:44:03;4.82;;;2.70;;
36547;SDS011;22551;52.206;4.856;2022-10-16T22:49:11;4.97;;;2.67;;
36547;SDS011;22551;52.206;4.856;2022-10-16T22:59:20;5.60;;;2.45;;
36547;SDS011;22551;52.206;4.856;2022-10-16T23:04:22;4.30;;;2.28;;
36547;SDS011;22551;52.206;4.856;2022-10-16T23:09:24;4.50;;;2.33;;
36547;SDS011;22551;52.206;4.856;2022-10-16T23:14:29;4.82;;;1.88;;
36547;SDS011;22551;52.206;4.856;2022-10-16T23:19:31;4.35;;;2.35;;
36547;SDS011;22551;52.206;4.856;2022-10-16T23:24:33;5.65;;;2.55;;
36547;SDS011;22551;52.206;4.856;2022-10-16T23:29:37;5.78;;;2.08;;
36547;SDS011;22551;52.206;4.856;2022-10-16T23:34:39;8.68;;;2.72;;
36547;SDS011;22551;52.206;4.856;2022-10-16T23:39:41;6.97;;;3.13;;
36547;SDS011;22551;52.206;4.856;2022-10-16T23:44:45;5.85;;;2.70;;
36547;SDS011;22551;52.206;4.856;2022-10-16T23:49:47;4.72;;;2.90;;
36547;SDS011;22551;52.206;4.856;2022-10-16T23:54:49;4.63;;;2.65;;
36547;SDS011;22551;52.206;4.856;2022-10-16T23:59:53;5.82;;;2.83;;
